sensor_id;sensor_type;location;lat;lon;timestamp;P1;durP1;ratioP1;P2;durP2;ratioP2
20478;SDS011;10398;52.490;13.434;2023-12-22T00:01:29;5.87;;;1.70;;
20478;SDS011;10398;52.490;13.434;2023-12-22T00:03:54;5.57;;;0.90;;
20478;SDS011;10398;52.490;13.434;2023-12-22T00:06:20;6.70;;;0.70;;
20478;SDS011;10398;52.490;13.434;2023-12-22T00:08:46;3.00;;;0.63;;
20478;SDS011;10398;52.490;13.434;2023-12-22T00:11:11;3.00;;;1.83;;
20478;SDS011;10398;52.490;13.434;2023-12-22T00:13:37;8.70;;;0.97;;
20478;SDS011;10398;52.490;13.434;2023-12-22T00:16:03;6.57;;;0.80;;
20478;SDS011;10398;52.490;13.434;2023-12-22T00:18:29;5.43;;;1.60;;
20478;SDS011;10398;52.490;13.434;2023-12-22T00:20:54;3.07;;;0.43;;
20478;SDS011;10398;52.490;13.434;2023-12-22T00:23:20;3.60;;;1.23;;
20478;SDS011;10398;52.490;13.434;2023-12-22T00:25:46;3.27;;;0.90;;
20478;SDS011;10398;52.490;13.434;2023-12-22T00:28:11;2.03;;;0.60;;
20478;SDS011;10398;52.490;13.434;2023-12-22T00:30:37;5.30;;;0.87;;
20478;SDS011;10398;52.490;13.434;2023-12-22T00:33:02;5.77;;;1.07;;
20478;SDS011;10398;52.490;13.434;2023-12-22T00:35:28;5.67;;;1.10;;
20478;SDS011;10398;52.490;13.434;2023-12-22T00:37:54;3.47;;;1.23;;
20478;SDS011;10398;52.490;13.434;2023-12-22T00:40:19;3.53;;;1.37;;
20478;SDS011;10398;52.490;13.434;2023-12-22T00:42:45;5.90;;;1.23;;
20478;SDS011;10398;52.490;13.434;2023-12-22T00:45:11;14.27;;;1.27;;
20478;SDS011;10398;52.490;13.434;2023-12-22T00:47:36;4.13;;;1.07;;
20478;SDS011;10398;52.490;13.434;2023-12-22T00:50:02;3.20;;;1.17;;
20478;SDS011;10398;52.490;13.434;2023-12-22T00:52:29;5.20;;;0.97;;
20478;SDS011;10398;52.490;13.434;2023-12-22T00:54:55;4.83;;;0.70;;
20478;SDS011;10398;52.490;13.434;2023-12-22T00:57:21;5.47;;;0.80;;
20478;SDS011;10398;52.490;13.434;2023-12-22T00:59:47;7.90;;;1.63;;
20478;SDS011;10398;52.490;13.434;2023-12-22T01:02:16;7.50;;;0.80;;
20478;SDS011;10398;52.490;13.434;2023-12-22T01:04:42;2.47;;;0.57;;
20478;SDS011;10398;52.490;13.434;2023-12-22T01:07:08;2.37;;;0.87;;
20478;SDS011;10398;52.490;13.434;2023-12-22T01:09:35;9.67;;;0.90;;
20478;SDS011;10398;52.490;13.434;2023-12-22T01:12:02;10.27;;;1.17;;
20478;SDS011;10398;52.490;13.434;2023-12-22T01:14:29;5.60;;;1.23;;
20478;SDS011;10398;52.490;13.434;2023-12-22T01:16:55;8.43;;;1.30;;
20478;SDS011;10398;52.490;13.434;2023-12-22T01:19:20;4.47;;;1.53;;
20478;SDS011;10398;52.490;13.434;2023-12-22T01:21:46;2.80;;;1.10;;
20478;SDS011;10398;52.490;13.434;2023-12-22T01:24:12;2.60;;;1.13;;
20478;SDS011;10398;52.490;13.434;2023-12-22T01:26:37;8.93;;;1.27;;
20478;SDS011;10398;52.490;13.434;2023-12-22T01:29:03;7.97;;;1.47;;
20478;SDS011;10398;52.490;13.434;2023-12-22T01:31:28;7.90;;;0.57;;
20478;SDS011;10398;52.490;13.434;2023-12-22T01:33:54;5.90;;;1.20;;
20478;SDS011;10398;52.490;13.434;2023-12-22T01:36:20;3.60;;;0.63;;
20478;SDS011;10398;52.490;13.434;2023-12-22T01:38:45;3.63;;;0.90;;
20478;SDS011;10398;52.490;13.434;2023-12-22T01:41:11;8.43;;;0.87;;
20478;SDS011;10398;52.490;13.434;2023-12-22T01:43:37;3.37;;;0.80;;
20478;SDS011;10398;52.490;13.434;2023-12-22T01:46:03;7.63;;;1.40;;
20478;SDS011;10398;52.490;13.434;2023-12-22T01:48:29;3.93;;;0.70;;
20478;SDS011;10398;52.490;13.434;2023-12-22T01:50:56;2.37;;;1.03;;
20478;SDS011;10398;52.490;13.434;2023-12-22T01:53:24;0.80;;;0.40;;
20478;SDS011;10398;52.490;13.434;2023-12-22T01:55:50;4.80;;;0.70;;
20478;SDS011;10398;52.490;13.434;2023-12-22T01:58:18;2.83;;;0.53;;
20478;SDS011;10398;52.490;13.434;2023-12-22T02:00:44;1.73;;;0.70;;
20478;SDS011;10398;52.490;13.434;2023-12-22T02:03:11;3.17;;;0.67;;
20478;SDS011;10398;52.490;13.434;2023-12-22T02:05:37;4.70;;;0.70;;
20478;SDS011;10398;52.490;13.434;2023-12-22T02:08:05;4.40;;;0.87;;
20478;SDS011;10398;52.490;13.434;2023-12-22T02:10:31;4.97;;;0.57;;
20478;SDS011;10398;52.490;13.434;2023-12-22T02:12:56;5.30;;;0.70;;
20478;SDS011;10398;52.490;13.434;2023-12-22T02:15:22;4.93;;;0.80;;
20478;SDS011;10398;52.490;13.434;2023-12-22T02:17:48;15.47;;;1.03;;
20478;SDS011;10398;52.490;13.434;2023-12-22T02:20:32;8.57;;;1.43;;
20478;SDS011;10398;52.490;13.434;2023-12-22T02:22:58;6.53;;;1.03;;
20478;SDS011;10398;52.490;13.434;2023-12-22T02:25:24;5.33;;;0.80;;
20478;SDS011;10398;52.490;13.434;2023-12-22T02:30:25;17.90;;;1.90;;
20478;SDS011;10398;52.490;13.434;2023-12-22T02:33:00;4.07;;;1.00;;
20478;SDS011;10398;52.490;13.434;2023-12-22T02:35:29;3.23;;;0.47;;
20478;SDS011;10398;52.490;13.434;2023-12-22T02:37:57;4.60;;;0.67;;
20478;SDS011;10398;52.490;13.434;2023-12-22T02:40:23;5.47;;;1.10;;
20478;SDS011;10398;52.490;13.434;2023-12-22T02:42:51;4.90;;;0.90;;
20478;SDS011;10398;52.490;13.434;2023-12-22T02:45:18;5.13;;;1.07;;
20478;SDS011;10398;52.490;13.434;2023-12-22T02:47:45;3.63;;;0.87;;
20478;SDS011;10398;52.490;13.434;2023-12-22T02:50:14;2.43;;;0.60;;
20478;SDS011;10398;52.490;13.434;2023-12-22T02:52:41;6.40;;;1.00;;
20478;SDS011;10398;52.490;13.434;2023-12-22T02:55:07;4.53;;;1.07;;
20478;SDS011;10398;52.490;13.434;2023-12-22T02:57:34;3.37;;;0.80;;
20478;SDS011;10398;52.490;13.434;2023-12-22T02:59:59;3.40;;;0.83;;
20478;SDS011;10398;52.490;13.434;2023-12-22T03:02:25;3.73;;;0.70;;
20478;SDS011;10398;52.490;13.434;2023-12-22T03:04:51;2.13;;;0.90;;
20478;SDS011;10398;52.490;13.434;2023-12-22T03:07:17;1.80;;;0.60;;
20478;SDS011;10398;52.490;13.434;2023-12-22T03:09:43;3.47;;;0.57;;
20478;SDS011;10398;52.490;13.434;2023-12-22T03:12:09;3.73;;;0.60;;
20478;SDS011;10398;52.490;13.434;2023-12-22T03:14:35;4.23;;;0.40;;
20478;SDS011;10398;52.490;13.434;2023-12-22T03:17:02;0.87;;;0.37;;
20478;SDS011;10398;52.490;13.434;2023-12-22T03:19:29;2.83;;;0.40;;
20478;SDS011;10398;52.490;13.434;2023-12-22T03:21:55;4.33;;;0.90;;
20478;SDS011;10398;52.490;13.434;2023-12-22T03:24:22;4.23;;;0.97;;
20478;SDS011;10398;52.490;13.434;2023-12-22T03:26:51;4.03;;;0.93;;
20478;SDS011;10398;52.490;13.434;2023-12-22T03:29:17;0.83;;;0.30;;
20478;SDS011;10398;52.490;13.434;2023-12-22T03:31:44;4.43;;;0.70;;
20478;SDS011;10398;52.490;13.434;2023-12-22T03:34:10;2.30;;;0.47;;
20478;SDS011;10398;52.490;13.434;2023-12-22T03:36:35;3.07;;;0.23;;
20478;SDS011;10398;52.490;13.434;2023-12-22T03:39:01;3.87;;;0.93;;
20478;SDS011;10398;52.490;13.434;2023-12-22T03:41:27;3.87;;;0.40;;
20478;SDS011;10398;52.490;13.434;2023-12-22T03:43:54;1.80;;;0.30;;
20478;SDS011;10398;52.490;13.434;2023-12-22T03:46:23;2.70;;;0.50;;
20478;SDS011;10398;52.490;13.434;2023-12-22T03:48:52;2.37;;;0.77;;
20478;SDS011;10398;52.490;13.434;2023-12-22T03:51:18;10.27;;;1.00;;
20478;SDS011;10398;52.490;13.434;2023-12-22T03:53:43;5.57;;;1.13;;
20478;SDS011;10398;52.490;13.434;2023-12-22T03:56:09;2.23;;;0.50;;
20478;SDS011;10398;52.490;13.434;2023-12-22T03:58:35;2.20;;;0.50;;
20478;SDS011;10398;52.490;13.434;2023-12-22T04:01:01;1.20;;;0.37;;
20478;SDS011;10398;52.490;13.434;2023-12-22T04:03:27;1.03;;;0.50;;
20478;SDS011;10398;52.490;13.434;2023-12-22T04:05:53;0.23;;;0.13;;
20478;SDS011;10398;52.490;13.434;2023-12-22T04:08:18;6.23;;;0.30;;
20478;SDS011;10398;52.490;13.434;2023-12-22T04:10:45;3.80;;;0.10;;
20478;SDS011;10398;52.490;13.434;2023-12-22T04:13:12;0.20;;;0.10;;
20478;SDS011;10398;52.490;13.434;2023-12-22T04:15:37;1.63;;;0.53;;
20478;SDS011;10398;52.490;13.434;2023-12-22T04:18:03;0.00;;;0.00;;
20478;SDS011;10398;52.490;13.434;2023-12-22T04:20:29;8.13;;;0.33;;
20478;SDS011;10398;52.490;13.434;2023-12-22T04:22:54;0.00;;;0.00;;
20478;SDS011;10398;52.490;13.434;2023-12-22T04:25:20;1.50;;;0.30;;
20478;SDS011;10398;52.490;13.434;2023-12-22T04:27:48;3.03;;;0.40;;
20478;SDS011;10398;52.490;13.434;2023-12-22T04:30:14;0.60;;;0.10;;
20478;SDS011;10398;52.490;13.434;2023-12-22T04:32:40;5.00;;;0.63;;
20478;SDS011;10398;52.490;13.434;2023-12-22T04:35:06;4.30;;;0.40;;
20478;SDS011;10398;52.490;13.434;2023-12-22T04:37:31;9.23;;;0.50;;
20478;SDS011;10398;52.490;13.434;2023-12-22T04:39:58;3.03;;;0.40;;
20478;SDS011;10398;52.490;13.434;2023-12-22T04:42:23;0.20;;;0.20;;
20478;SDS011;10398;52.490;13.434;2023-12-22T04:44:50;0.00;;;0.00;;
20478;SDS011;10398;52.490;13.434;2023-12-22T04:47:16;0.83;;;0.40;;
20478;SDS011;10398;52.490;13.434;2023-12-22T04:49:42;0.10;;;0.07;;
20478;SDS011;10398;52.490;13.434;2023-12-22T04:52:08;1.10;;;0.40;;
20478;SDS011;10398;52.490;13.434;2023-12-22T04:54:33;7.53;;;0.77;;
20478;SDS011;10398;52.490;13.434;2023-12-22T04:56:59;3.10;;;0.40;;
20478;SDS011;10398;52.490;13.434;2023-12-22T04:59:25;0.10;;;0.10;;
20478;SDS011;10398;52.490;13.434;2023-12-22T05:01:50;0.83;;;0.40;;
20478;SDS011;10398;52.490;13.434;2023-12-22T05:04:16;2.00;;;0.33;;
20478;SDS011;10398;52.490;13.434;2023-12-22T05:06:42;0.60;;;0.27;;
20478;SDS011;10398;52.490;13.434;2023-12-22T05:09:08;2.50;;;0.10;;
20478;SDS011;10398;52.490;13.434;2023-12-22T05:11:34;0.10;;;0.10;;
20478;SDS011;10398;52.490;13.434;2023-12-22T05:14:00;3.30;;;0.70;;
20478;SDS011;10398;52.490;13.434;2023-12-22T05:16:25;0.13;;;0.10;;
20478;SDS011;10398;52.490;13.434;2023-12-22T05:18:51;3.33;;;0.20;;
20478;SDS011;10398;52.490;13.434;2023-12-22T05:21:17;0.27;;;0.13;;
20478;SDS011;10398;52.490;13.434;2023-12-22T05:23:42;0.20;;;0.20;;
20478;SDS011;10398;52.490;13.434;2023-12-22T05:26:08;2.50;;;0.43;;
20478;SDS011;10398;52.490;13.434;2023-12-22T05:28:34;1.40;;;0.40;;
20478;SDS011;10398;52.490;13.434;2023-12-22T05:30:59;1.70;;;0.10;;
20478;SDS011;10398;52.490;13.434;2023-12-22T05:33:25;2.30;;;0.30;;
20478;SDS011;10398;52.490;13.434;2023-12-22T05:35:51;0.10;;;0.10;;
20478;SDS011;10398;52.490;13.434;2023-12-22T05:38:17;5.33;;;0.37;;
20478;SDS011;10398;52.490;13.434;2023-12-22T05:40:43;0.10;;;0.10;;
20478;SDS011;10398;52.490;13.434;2023-12-22T05:43:08;0.20;;;0.10;;
20478;SDS011;10398;52.490;13.434;2023-12-22T05:45:34;0.33;;;0.20;;
20478;SDS011;10398;52.490;13.434;2023-12-22T05:47:59;0.37;;;0.20;;
20478;SDS011;10398;52.490;13.434;2023-12-22T05:50:25;1.40;;;0.50;;
20478;SDS011;10398;52.490;13.434;2023-12-22T05:52:51;0.47;;;0.10;;
20478;SDS011;10398;52.490;13.434;2023-12-22T05:55:16;0.50;;;0.27;;
20478;SDS011;10398;52.490;13.434;2023-12-22T05:57:42;0.43;;;0.20;;
20478;SDS011;10398;52.490;13.434;2023-12-22T06:00:08;4.03;;;0.20;;
20478;SDS011;10398;52.490;13.434;2023-12-22T06:02:36;2.70;;;0.47;;
20478;SDS011;10398;52.490;13.434;2023-12-22T06:05:01;1.97;;;0.50;;
20478;SDS011;10398;52.490;13.434;2023-12-22T06:07:28;2.77;;;0.70;;
20478;SDS011;10398;52.490;13.434;2023-12-22T06:09:53;0.50;;;0.40;;
20478;SDS011;10398;52.490;13.434;2023-12-22T06:12:19;2.93;;;0.30;;
20478;SDS011;10398;52.490;13.434;2023-12-22T06:14:45;1.00;;;0.23;;
20478;SDS011;10398;52.490;13.434;2023-12-22T06:17:10;0.23;;;0.10;;
20478;SDS011;10398;52.490;13.434;2023-12-22T06:19:36;1.27;;;0.40;;
20478;SDS011;10398;52.490;13.434;2023-12-22T06:22:02;0.67;;;0.20;;
20478;SDS011;10398;52.490;13.434;2023-12-22T06:24:28;1.57;;;0.43;;
20478;SDS011;10398;52.490;13.434;2023-12-22T06:26:53;0.73;;;0.40;;
20478;SDS011;10398;52.490;13.434;2023-12-22T06:29:19;3.90;;;0.30;;
20478;SDS011;10398;52.490;13.434;2023-12-22T06:31:45;1.13;;;0.23;;
20478;SDS011;10398;52.490;13.434;2023-12-22T06:34:15;1.67;;;0.27;;
20478;SDS011;10398;52.490;13.434;2023-12-22T06:36:41;4.07;;;0.17;;
20478;SDS011;10398;52.490;13.434;2023-12-22T06:39:07;3.30;;;0.20;;
20478;SDS011;10398;52.490;13.434;2023-12-22T06:41:33;8.70;;;0.63;;
20478;SDS011;10398;52.490;13.434;2023-12-22T06:43:59;8.60;;;0.93;;
20478;SDS011;10398;52.490;13.434;2023-12-22T06:46:25;0.23;;;0.17;;
20478;SDS011;10398;52.490;13.434;2023-12-22T06:48:51;0.40;;;0.20;;
20478;SDS011;10398;52.490;13.434;2023-12-22T06:51:21;0.37;;;0.10;;
20478;SDS011;10398;52.490;13.434;2023-12-22T06:53:48;6.70;;;0.50;;
20478;SDS011;10398;52.490;13.434;2023-12-22T06:56:19;0.10;;;0.00;;
20478;SDS011;10398;52.490;13.434;2023-12-22T06:58:49;0.00;;;0.00;;
20478;SDS011;10398;52.490;13.434;2023-12-22T07:03:45;2.10;;;0.70;;
20478;SDS011;10398;52.490;13.434;2023-12-22T07:06:13;1.33;;;0.47;;
20478;SDS011;10398;52.490;13.434;2023-12-22T07:08:39;0.20;;;0.20;;
20478;SDS011;10398;52.490;13.434;2023-12-22T07:11:05;0.33;;;0.10;;
20478;SDS011;10398;52.490;13.434;2023-12-22T07:13:30;0.43;;;0.20;;
20478;SDS011;10398;52.490;13.434;2023-12-22T07:15:56;0.00;;;0.00;;
20478;SDS011;10398;52.490;13.434;2023-12-22T07:18:21;0.73;;;0.33;;
20478;SDS011;10398;52.490;13.434;2023-12-22T07:20:47;5.17;;;0.40;;
20478;SDS011;10398;52.490;13.434;2023-12-22T07:23:13;1.47;;;0.37;;
20478;SDS011;10398;52.490;13.434;2023-12-22T07:25:39;0.07;;;0.00;;
20478;SDS011;10398;52.490;13.434;2023-12-22T07:28:05;1.60;;;0.30;;
20478;SDS011;10398;52.490;13.434;2023-12-22T07:30:31;8.63;;;0.67;;
20478;SDS011;10398;52.490;13.434;2023-12-22T07:32:57;3.40;;;0.30;;
20478;SDS011;10398;52.490;13.434;2023-12-22T07:35:22;0.37;;;0.10;;
20478;SDS011;10398;52.490;13.434;2023-12-22T07:37:48;1.23;;;0.40;;
20478;SDS011;10398;52.490;13.434;2023-12-22T07:40:13;3.00;;;0.80;;
20478;SDS011;10398;52.490;13.434;2023-12-22T07:42:39;3.53;;;0.20;;
20478;SDS011;10398;52.490;13.434;2023-12-22T07:45:05;1.33;;;0.40;;
20478;SDS011;10398;52.490;13.434;2023-12-22T07:47:32;5.33;;;0.33;;
20478;SDS011;10398;52.490;13.434;2023-12-22T07:49:58;7.50;;;1.07;;
20478;SDS011;10398;52.490;13.434;2023-12-22T07:52:25;4.00;;;0.80;;
20478;SDS011;10398;52.490;13.434;2023-12-22T07:54:50;5.30;;;1.00;;
20478;SDS011;10398;52.490;13.434;2023-12-22T07:57:16;3.10;;;0.63;;
20478;SDS011;10398;52.490;13.434;2023-12-22T07:59:42;3.90;;;0.80;;
20478;SDS011;10398;52.490;13.434;2023-12-22T08:02:07;5.73;;;1.17;;
20478;SDS011;10398;52.490;13.434;2023-12-22T08:04:33;4.13;;;0.60;;
20478;SDS011;10398;52.490;13.434;2023-12-22T08:06:59;6.77;;;0.57;;
20478;SDS011;10398;52.490;13.434;2023-12-22T08:09:24;0.20;;;0.10;;
20478;SDS011;10398;52.490;13.434;2023-12-22T08:11:50;1.30;;;0.47;;
20478;SDS011;10398;52.490;13.434;2023-12-22T08:14:18;0.93;;;0.10;;
20478;SDS011;10398;52.490;13.434;2023-12-22T08:16:44;9.50;;;0.93;;
20478;SDS011;10398;52.490;13.434;2023-12-22T08:19:10;2.70;;;0.30;;
20478;SDS011;10398;52.490;13.434;2023-12-22T08:21:35;5.50;;;0.33;;
20478;SDS011;10398;52.490;13.434;2023-12-22T08:24:01;1.03;;;0.47;;
20478;SDS011;10398;52.490;13.434;2023-12-22T08:26:26;0.93;;;0.47;;
20478;SDS011;10398;52.490;13.434;2023-12-22T08:28:52;0.80;;;0.30;;
20478;SDS011;10398;52.490;13.434;2023-12-22T08:31:18;3.47;;;0.33;;
20478;SDS011;10398;52.490;13.434;2023-12-22T08:33:44;0.43;;;0.20;;
20478;SDS011;10398;52.490;13.434;2023-12-22T08:36:10;1.23;;;0.33;;
20478;SDS011;10398;52.490;13.434;2023-12-22T08:38:36;4.53;;;0.30;;
20478;SDS011;10398;52.490;13.434;2023-12-22T08:41:05;3.23;;;0.87;;
20478;SDS011;10398;52.490;13.434;2023-12-22T08:43:35;7.03;;;0.53;;
20478;SDS011;10398;52.490;13.434;2023-12-22T08:46:03;2.20;;;0.87;;
20478;SDS011;10398;52.490;13.434;2023-12-22T08:48:29;1.03;;;0.40;;
20478;SDS011;10398;52.490;13.434;2023-12-22T08:50:55;0.63;;;0.10;;
20478;SDS011;10398;52.490;13.434;2023-12-22T08:53:20;1.27;;;0.33;;
20478;SDS011;10398;52.490;13.434;2023-12-22T08:55:46;11.27;;;0.87;;
20478;SDS011;10398;52.490;13.434;2023-12-22T08:58:12;1.50;;;0.60;;
20478;SDS011;10398;52.490;13.434;2023-12-22T09:00:38;6.47;;;0.70;;
20478;SDS011;10398;52.490;13.434;2023-12-22T09:03:03;2.17;;;0.33;;
20478;SDS011;10398;52.490;13.434;2023-12-22T09:05:29;1.10;;;0.53;;
20478;SDS011;10398;52.490;13.434;2023-12-22T09:07:55;4.87;;;0.57;;
20478;SDS011;10398;52.490;13.434;2023-12-22T09:10:20;3.97;;;0.70;;
20478;SDS011;10398;52.490;13.434;2023-12-22T09:12:46;4.40;;;0.27;;
20478;SDS011;10398;52.490;13.434;2023-12-22T09:15:12;6.37;;;0.63;;
20478;SDS011;10398;52.490;13.434;2023-12-22T09:17:38;2.90;;;0.50;;
20478;SDS011;10398;52.490;13.434;2023-12-22T09:20:04;6.60;;;0.57;;
20478;SDS011;10398;52.490;13.434;2023-12-22T09:22:30;0.43;;;0.30;;
20478;SDS011;10398;52.490;13.434;2023-12-22T09:24:55;3.57;;;0.57;;
20478;SDS011;10398;52.490;13.434;2023-12-22T09:27:21;6.33;;;1.17;;
20478;SDS011;10398;52.490;13.434;2023-12-22T09:29:47;3.47;;;0.87;;
20478;SDS011;10398;52.490;13.434;2023-12-22T09:32:12;6.93;;;1.13;;
20478;SDS011;10398;52.490;13.434;2023-12-22T09:34:38;8.33;;;0.80;;
20478;SDS011;10398;52.490;13.434;2023-12-22T09:37:05;7.57;;;0.43;;
20478;SDS011;10398;52.490;13.434;2023-12-22T09:39:31;2.03;;;0.93;;
20478;SDS011;10398;52.490;13.434;2023-12-22T09:41:56;3.43;;;0.60;;
20478;SDS011;10398;52.490;13.434;2023-12-22T09:44:22;3.20;;;0.70;;
20478;SDS011;10398;52.490;13.434;2023-12-22T09:46:48;1.93;;;0.50;;
20478;SDS011;10398;52.490;13.434;2023-12-22T09:49:17;9.40;;;0.90;;
20478;SDS011;10398;52.490;13.434;2023-12-22T09:51:45;1.77;;;0.93;;
20478;SDS011;10398;52.490;13.434;2023-12-22T09:54:11;6.57;;;0.90;;
20478;SDS011;10398;52.490;13.434;2023-12-22T09:56:38;0.57;;;0.27;;
20478;SDS011;10398;52.490;13.434;2023-12-22T09:59:10;1.70;;;0.50;;
20478;SDS011;10398;52.490;13.434;2023-12-22T10:01:42;1.97;;;0.60;;
20478;SDS011;10398;52.490;13.434;2023-12-22T10:04:10;6.87;;;0.67;;
20478;SDS011;10398;52.490;13.434;2023-12-22T10:06:37;5.03;;;1.00;;
20478;SDS011;10398;52.490;13.434;2023-12-22T10:09:04;4.97;;;0.53;;
20478;SDS011;10398;52.490;13.434;2023-12-22T10:11:32;5.73;;;2.10;;
20478;SDS011;10398;52.490;13.434;2023-12-22T10:13:59;11.77;;;1.53;;
20478;SDS011;10398;52.490;13.434;2023-12-22T10:16:26;5.53;;;0.80;;
20478;SDS011;10398;52.490;13.434;2023-12-22T10:18:52;7.03;;;1.07;;
20478;SDS011;10398;52.490;13.434;2023-12-22T10:21:19;6.57;;;1.23;;
20478;SDS011;10398;52.490;13.434;2023-12-22T10:23:44;4.13;;;0.70;;
20478;SDS011;10398;52.490;13.434;2023-12-22T10:26:13;5.63;;;1.03;;
20478;SDS011;10398;52.490;13.434;2023-12-22T10:28:39;10.77;;;1.20;;
20478;SDS011;10398;52.490;13.434;2023-12-22T10:31:06;6.07;;;1.20;;
20478;SDS011;10398;52.490;13.434;2023-12-22T10:33:32;10.00;;;1.40;;
20478;SDS011;10398;52.490;13.434;2023-12-22T10:36:01;1.57;;;0.43;;
20478;SDS011;10398;52.490;13.434;2023-12-22T10:38:31;6.43;;;0.63;;
20478;SDS011;10398;52.490;13.434;2023-12-22T10:41:05;2.37;;;0.50;;
20478;SDS011;10398;52.490;13.434;2023-12-22T10:43:38;6.60;;;0.90;;
20478;SDS011;10398;52.490;13.434;2023-12-22T10:46:05;5.57;;;1.27;;
20478;SDS011;10398;52.490;13.434;2023-12-22T10:48:33;8.50;;;1.37;;
20478;SDS011;10398;52.490;13.434;2023-12-22T10:50:58;6.10;;;0.90;;
20478;SDS011;10398;52.490;13.434;2023-12-22T10:53:24;6.07;;;1.20;;
20478;SDS011;10398;52.490;13.434;2023-12-22T10:55:51;1.97;;;0.60;;
20478;SDS011;10398;52.490;13.434;2023-12-22T10:58:16;5.27;;;0.70;;
20478;SDS011;10398;52.490;13.434;2023-12-22T11:00:44;4.43;;;0.70;;
20478;SDS011;10398;52.490;13.434;2023-12-22T11:03:12;2.73;;;0.70;;
20478;SDS011;10398;52.490;13.434;2023-12-22T11:05:43;8.70;;;1.17;;
20478;SDS011;10398;52.490;13.434;2023-12-22T11:08:11;4.17;;;0.80;;
20478;SDS011;10398;52.490;13.434;2023-12-22T11:10:37;5.27;;;0.70;;
20478;SDS011;10398;52.490;13.434;2023-12-22T11:13:06;5.07;;;1.23;;
20478;SDS011;10398;52.490;13.434;2023-12-22T11:15:34;4.17;;;0.63;;
20478;SDS011;10398;52.490;13.434;2023-12-22T11:18:01;4.17;;;0.93;;
20478;SDS011;10398;52.490;13.434;2023-12-22T11:20:27;5.20;;;0.67;;
20478;SDS011;10398;52.490;13.434;2023-12-22T11:22:57;4.13;;;1.07;;
20478;SDS011;10398;52.490;13.434;2023-12-22T11:25:25;10.13;;;2.03;;
20478;SDS011;10398;52.490;13.434;2023-12-22T11:27:52;6.87;;;1.30;;
20478;SDS011;10398;52.490;13.434;2023-12-22T11:30:21;6.00;;;1.13;;
20478;SDS011;10398;52.490;13.434;2023-12-22T11:32:48;5.77;;;1.00;;
20478;SDS011;10398;52.490;13.434;2023-12-22T11:35:15;3.13;;;0.90;;
20478;SDS011;10398;52.490;13.434;2023-12-22T11:37:42;9.53;;;1.43;;
20478;SDS011;10398;52.490;13.434;2023-12-22T11:40:08;6.23;;;0.90;;
20478;SDS011;10398;52.490;13.434;2023-12-22T11:42:45;8.60;;;2.27;;
20478;SDS011;10398;52.490;13.434;2023-12-22T11:45:15;3.80;;;1.50;;
20478;SDS011;10398;52.490;13.434;2023-12-22T11:47:43;6.03;;;1.47;;
20478;SDS011;10398;52.490;13.434;2023-12-22T11:50:10;3.03;;;1.30;;
20478;SDS011;10398;52.490;13.434;2023-12-22T11:52:37;7.77;;;1.53;;
20478;SDS011;10398;52.490;13.434;2023-12-22T11:55:04;6.43;;;2.17;;
20478;SDS011;10398;52.490;13.434;2023-12-22T11:57:31;4.20;;;1.13;;
20478;SDS011;10398;52.490;13.434;2023-12-22T12:02:26;6.90;;;0.70;;
20478;SDS011;10398;52.490;13.434;2023-12-22T12:04:54;3.10;;;0.63;;
20478;SDS011;10398;52.490;13.434;2023-12-22T12:07:40;2.20;;;0.30;;
20478;SDS011;10398;52.490;13.434;2023-12-22T12:10:09;4.50;;;0.90;;
20478;SDS011;10398;52.490;13.434;2023-12-22T12:12:36;8.07;;;1.03;;
20478;SDS011;10398;52.490;13.434;2023-12-22T12:15:09;10.03;;;1.00;;
20478;SDS011;10398;52.490;13.434;2023-12-22T12:17:41;5.97;;;1.20;;
20478;SDS011;10398;52.490;13.434;2023-12-22T12:20:08;1.83;;;0.60;;
20478;SDS011;10398;52.490;13.434;2023-12-22T12:22:36;10.50;;;0.90;;
20478;SDS011;10398;52.490;13.434;2023-12-22T12:25:12;7.63;;;1.10;;
20478;SDS011;10398;52.490;13.434;2023-12-22T12:27:37;6.63;;;0.50;;
20478;SDS011;10398;52.490;13.434;2023-12-22T12:30:10;4.93;;;0.93;;
20478;SDS011;10398;52.490;13.434;2023-12-22T12:32:38;1.90;;;0.90;;
20478;SDS011;10398;52.490;13.434;2023-12-22T12:35:04;7.33;;;1.03;;
20478;SDS011;10398;52.490;13.434;2023-12-22T12:37:30;3.20;;;0.70;;
20478;SDS011;10398;52.490;13.434;2023-12-22T12:39:57;5.63;;;0.73;;
20478;SDS011;10398;52.490;13.434;2023-12-22T12:42:32;7.63;;;1.20;;
20478;SDS011;10398;52.490;13.434;2023-12-22T12:45:02;2.67;;;0.80;;
20478;SDS011;10398;52.490;13.434;2023-12-22T12:47:29;6.97;;;0.80;;
20478;SDS011;10398;52.490;13.434;2023-12-22T12:49:58;4.50;;;0.60;;
20478;SDS011;10398;52.490;13.434;2023-12-22T12:52:27;6.03;;;0.97;;
20478;SDS011;10398;52.490;13.434;2023-12-22T12:54:53;10.17;;;1.37;;
20478;SDS011;10398;52.490;13.434;2023-12-22T12:57:19;5.80;;;0.93;;
20478;SDS011;10398;52.490;13.434;2023-12-22T12:59:46;7.17;;;1.33;;
20478;SDS011;10398;52.490;13.434;2023-12-22T13:02:13;9.87;;;1.10;;
20478;SDS011;10398;52.490;13.434;2023-12-22T13:04:42;8.47;;;1.53;;
20478;SDS011;10398;52.490;13.434;2023-12-22T13:07:08;6.33;;;1.43;;
20478;SDS011;10398;52.490;13.434;2023-12-22T13:09:35;11.87;;;1.57;;
20478;SDS011;10398;52.490;13.434;2023-12-22T13:12:01;8.10;;;1.40;;
20478;SDS011;10398;52.490;13.434;2023-12-22T13:14:28;12.10;;;1.07;;
20478;SDS011;10398;52.490;13.434;2023-12-22T13:16:54;3.50;;;1.03;;
20478;SDS011;10398;52.490;13.434;2023-12-22T13:19:21;8.17;;;1.13;;
20478;SDS011;10398;52.490;13.434;2023-12-22T13:21:49;5.97;;;0.87;;
20478;SDS011;10398;52.490;13.434;2023-12-22T13:24:15;6.00;;;1.10;;
20478;SDS011;10398;52.490;13.434;2023-12-22T13:26:42;3.03;;;0.50;;
20478;SDS011;10398;52.490;13.434;2023-12-22T13:29:09;2.67;;;0.77;;
20478;SDS011;10398;52.490;13.434;2023-12-22T13:31:39;8.77;;;0.80;;
20478;SDS011;10398;52.490;13.434;2023-12-22T13:34:11;4.27;;;0.77;;
20478;SDS011;10398;52.490;13.434;2023-12-22T13:36:41;6.70;;;1.57;;
20478;SDS011;10398;52.490;13.434;2023-12-22T13:39:07;8.80;;;0.83;;
20478;SDS011;10398;52.490;13.434;2023-12-22T13:41:34;6.70;;;1.30;;
20478;SDS011;10398;52.490;13.434;2023-12-22T13:44:06;7.10;;;1.50;;
20478;SDS011;10398;52.490;13.434;2023-12-22T13:46:33;7.73;;;0.77;;
20478;SDS011;10398;52.490;13.434;2023-12-22T13:49:02;6.57;;;1.00;;
20478;SDS011;10398;52.490;13.434;2023-12-22T13:54:24;30.90;;;6.17;;
20478;SDS011;10398;52.490;13.434;2023-12-22T13:56:57;7.10;;;2.77;;
20478;SDS011;10398;52.490;13.434;2023-12-22T13:59:32;11.27;;;2.07;;
20478;SDS011;10398;52.490;13.434;2023-12-22T14:01:58;9.03;;;2.23;;
20478;SDS011;10398;52.490;13.434;2023-12-22T14:04:25;15.63;;;4.00;;
20478;SDS011;10398;52.490;13.434;2023-12-22T14:06:51;29.73;;;5.13;;
20478;SDS011;10398;52.490;13.434;2023-12-22T14:09:16;14.90;;;4.40;;
20478;SDS011;10398;52.490;13.434;2023-12-22T14:11:46;10.83;;;1.93;;
20478;SDS011;10398;52.490;13.434;2023-12-22T14:14:12;5.70;;;1.30;;
20478;SDS011;10398;52.490;13.434;2023-12-22T14:16:38;14.97;;;3.27;;
20478;SDS011;10398;52.490;13.434;2023-12-22T14:19:04;17.03;;;2.57;;
20478;SDS011;10398;52.490;13.434;2023-12-22T14:21:30;8.53;;;2.20;;
20478;SDS011;10398;52.490;13.434;2023-12-22T14:23:55;8.47;;;2.70;;
20478;SDS011;10398;52.490;13.434;2023-12-22T14:26:21;4.03;;;1.80;;
20478;SDS011;10398;52.490;13.434;2023-12-22T14:28:46;17.47;;;3.30;;
20478;SDS011;10398;52.490;13.434;2023-12-22T14:31:15;5.60;;;1.43;;
20478;SDS011;10398;52.490;13.434;2023-12-22T14:33:42;2.23;;;0.90;;
20478;SDS011;10398;52.490;13.434;2023-12-22T14:36:07;10.53;;;2.70;;
20478;SDS011;10398;52.490;13.434;2023-12-22T14:38:33;26.57;;;5.60;;
20478;SDS011;10398;52.490;13.434;2023-12-22T14:40:59;8.23;;;2.80;;